sensor_id;sensor_type;location;lat;lon;timestamp;pressure;altitude;pressure_sealevel;temperature;humidity
11448;BME280;43755;49.736;8.734;2023-11-21T00:01:36;97172.00;;;8.26;100.00
11448;BME280;43755;49.736;8.734;2023-11-21T00:03:38;97170.44;;;8.22;100.00
11448;BME280;43755;49.736;8.734;2023-11-21T00:05:38;97178.28;;;8.23;100.00
11448;BME280;43755;49.736;8.734;2023-11-21T00:07:42;97169.81;;;8.17;100.00
11448;BME280;43755;49.736;8.734;2023-11-21T00:09:42;97181.09;;;8.19;100.00
11448;BME280;43755;49.736;8.734;2023-11-21T00:11:45;97179.13;;;8.24;100.00
11448;BME280;43755;49.736;8.734;2023-11-21T00:13:46;97188.81;;;8.23;100.00
11448;BME280;43755;49.736;8.734;2023-11-21T00:15:48;97176.63;;;8.21;100.00
11448;BME280;43755;49.736;8.734;2023-11-21T00:17:49;97173.41;;;8.14;100.00
11448;BME280;43755;49.736;8.734;2023-11-21T00:19:51;97178.75;;;8.13;100.00
11448;BME280;43755;49.736;8.734;2023-11-21T00:21:52;97174.44;;;8.12;100.00
11448;BME280;43755;49.736;8.734;2023-11-21T00:23:54;97183.94;;;8.14;100.00
11448;BME280;43755;49.736;8.734;2023-11-21T00:25:55;97175.00;;;8.18;100.00
11448;BME280;43755;49.736;8.734;2023-11-21T00:27:58;97164.53;;;8.17;100.00
11448;BME280;43755;49.736;8.734;2023-11-21T00:30:00;97173.34;;;8.16;100.00
11448;BME280;43755;49.736;8.734;2023-11-21T00:32:02;97177.63;;;8.18;100.00
11448;BME280;43755;49.736;8.734;2023-11-21T00:34:05;97172.44;;;8.17;100.00
11448;BME280;43755;49.736;8.734;2023-11-21T00:36:08;97176.06;;;8.14;100.00
11448;BME280;43755;49.736;8.734;2023-11-21T00:38:09;97172.56;;;8.14;100.00
11448;BME280;43755;49.736;8.734;2023-11-21T00:40:12;97169.00;;;8.15;100.00
11448;BME280;43755;49.736;8.734;2023-11-21T00:42:12;97175.19;;;8.14;100.00
11448;BME280;43755;49.736;8.734;2023-11-21T00:44:15;97171.56;;;8.16;100.00
11448;BME280;43755;49.736;8.734;2023-11-21T00:46:17;97171.28;;;8.22;100.00
11448;BME280;43755;49.736;8.734;2023-11-21T00:48:18;97168.59;;;8.24;100.00
11448;BME280;43755;49.736;8.734;2023-11-21T00:50:19;97171.88;;;8.29;100.00
11448;BME280;43755;49.736;8.734;2023-11-21T00:52:21;97170.03;;;8.31;100.00
11448;BME280;43755;49.736;8.734;2023-11-21T00:54:22;97164.75;;;8.31;100.00
11448;BME280;43755;49.736;8.734;2023-11-21T00:56:23;97163.84;;;8.32;100.00
11448;BME280;43755;49.736;8.734;2023-11-21T00:58:25;97167.38;;;8.31;100.00
11448;BME280;43755;49.736;8.734;2023-11-21T01:00:28;97167.38;;;8.31;100.00
11448;BME280;43755;49.736;8.734;2023-11-21T01:02:29;97170.03;;;8.31;100.00
11448;BME280;43755;49.736;8.734;2023-11-21T01:04:31;97164.81;;;8.30;100.00
11448;BME280;43755;49.736;8.734;2023-11-21T01:06:32;97165.75;;;8.29;100.00
11448;BME280;43755;49.736;8.734;2023-11-21T01:08:34;97167.56;;;8.27;100.00
11448;BME280;43755;49.736;8.734;2023-11-21T01:10:36;97171.94;;;8.28;100.00
11448;BME280;43755;49.736;8.734;2023-11-21T01:12:38;97170.97;;;8.30;100.00
11448;BME280;43755;49.736;8.734;2023-11-21T01:14:38;97177.13;;;8.29;100.00
11448;BME280;43755;49.736;8.734;2023-11-21T01:16:42;97180.28;;;8.18;100.00
11448;BME280;43755;49.736;8.734;2023-11-21T01:18:42;97177.47;;;8.03;100.00
11448;BME280;43755;49.736;8.734;2023-11-21T01:20:44;97180.19;;;8.20;100.00
11448;BME280;43755;49.736;8.734;2023-11-21T01:22:47;97175.94;;;8.17;100.00
11448;BME280;43755;49.736;8.734;2023-11-21T01:24:49;97182.75;;;8.21;100.00
11448;BME280;43755;49.736;8.734;2023-11-21T01:26:50;97185.09;;;8.28;100.00
11448;BME280;43755;49.736;8.734;2023-11-21T01:28:52;97172.00;;;8.26;100.00
11448;BME280;43755;49.736;8.734;2023-11-21T01:30:53;97169.28;;;8.28;100.00
11448;BME280;43755;49.736;8.734;2023-11-21T01:32:58;97168.34;;;8.30;100.00
11448;BME280;43755;49.736;8.734;2023-11-21T01:34:59;97178.66;;;8.35;100.00
11448;BME280;43755;49.736;8.734;2023-11-21T01:37:01;97175.34;;;8.30;100.00
11448;BME280;43755;49.736;8.734;2023-11-21T01:39:04;97186.50;;;8.36;100.00
11448;BME280;43755;49.736;8.734;2023-11-21T01:41:11;97180.63;;;8.30;100.00
11448;BME280;43755;49.736;8.734;2023-11-21T01:43:13;97179.41;;;8.18;100.00
11448;BME280;43755;49.736;8.734;2023-11-21T01:45:14;97187.97;;;8.23;100.00
11448;BME280;43755;49.736;8.734;2023-11-21T01:47:16;97181.97;;;8.19;100.00
11448;BME280;43755;49.736;8.734;2023-11-21T01:49:19;97183.84;;;8.17;100.00
11448;BME280;43755;49.736;8.734;2023-11-21T01:51:21;97179.19;;;8.22;100.00
11448;BME280;43755;49.736;8.734;2023-11-21T01:53:23;97178.13;;;8.27;100.00
11448;BME280;43755;49.736;8.734;2023-11-21T01:55:26;97187.09;;;8.22;100.00
11448;BME280;43755;49.736;8.734;2023-11-21T01:57:27;97189.78;;;8.21;100.00
11448;BME280;43755;49.736;8.734;2023-11-21T01:59:33;97186.88;;;8.27;100.00
11448;BME280;43755;49.736;8.734;2023-11-21T02:01:35;97182.47;;;8.28;100.00
11448;BME280;43755;49.736;8.734;2023-11-21T02:03:36;97187.81;;;8.26;100.00
11448;BME280;43755;49.736;8.734;2023-11-21T02:05:39;97187.75;;;8.28;100.00
11448;BME280;43755;49.736;8.734;2023-11-21T02:07:40;97181.50;;;8.30;100.00
11448;BME280;43755;49.736;8.734;2023-11-21T02:09:41;97185.66;;;8.36;100.00
11448;BME280;43755;49.736;8.734;2023-11-21T02:11:43;97183.06;;;8.34;100.00
11448;BME280;43755;49.736;8.734;2023-11-21T02:13:44;97182.22;;;8.34;100.00
11448;BME280;43755;49.736;8.734;2023-11-21T02:15:45;97188.59;;;8.28;100.00
11448;BME280;43755;49.736;8.734;2023-11-21T02:17:50;97187.69;;;8.29;100.00
11448;BME280;43755;49.736;8.734;2023-11-21T02:19:51;97189.25;;;8.33;100.00
11448;BME280;43755;49.736;8.734;2023-11-21T02:21:54;97188.34;;;8.34;100.00
11448;BME280;43755;49.736;8.734;2023-11-21T02:23:59;97188.19;;;8.37;100.00
11448;BME280;43755;49.736;8.734;2023-11-21T02:26:00;97195.31;;;8.35;100.00
11448;BME280;43755;49.736;8.734;2023-11-21T02:28:04;97191.91;;;8.33;100.00
11448;BME280;43755;49.736;8.734;2023-11-21T02:30:07;97192.16;;;8.27;100.00
11448;BME280;43755;49.736;8.734;2023-11-21T02:32:12;97193.28;;;8.21;100.00
11448;BME280;43755;49.736;8.734;2023-11-21T02:34:14;97189.91;;;8.38;100.00
11448;BME280;43755;49.736;8.734;2023-11-21T02:36:16;97190.75;;;8.39;100.00
11448;BME280;43755;49.736;8.734;2023-11-21T02:38:17;97193.97;;;8.45;100.00
11448;BME280;43755;49.736;8.734;2023-11-21T02:40:20;97189.19;;;8.35;100.00
11448;BME280;43755;49.736;8.734;2023-11-21T02:42:21;97184.78;;;8.35;100.00
11448;BME280;43755;49.736;8.734;2023-11-21T02:44:22;97189.03;;;8.38;100.00
11448;BME280;43755;49.736;8.734;2023-11-21T02:46:23;97188.13;;;8.39;100.00
11448;BME280;43755;49.736;8.734;2023-11-21T02:48:24;97181.06;;;8.39;100.00
11448;BME280;43755;49.736;8.734;2023-11-21T02:50:26;97182.34;;;8.31;100.00
11448;BME280;43755;49.736;8.734;2023-11-21T02:52:27;97183.66;;;8.41;100.00
11448;BME280;43755;49.736;8.734;2023-11-21T02:54:28;97175.69;;;8.42;100.00
11448;BME280;43755;49.736;8.734;2023-11-21T02:56:32;97179.22;;;8.41;100.00
11448;BME280;43755;49.736;8.734;2023-11-21T02:58:34;97180.28;;;8.37;100.00
11448;BME280;43755;49.736;8.734;2023-11-21T03:00:34;97181.00;;;8.41;100.00
11448;BME280;43755;49.736;8.734;2023-11-21T03:02:35;97174.72;;;8.43;100.00
11448;BME280;43755;49.736;8.734;2023-11-21T03:04:39;97174.72;;;8.43;100.00
11448;BME280;43755;49.736;8.734;2023-11-21T03:06:40;97176.44;;;8.44;100.00
11448;BME280;43755;49.736;8.734;2023-11-21T03:08:41;97181.94;;;8.40;100.00
11448;BME280;43755;49.736;8.734;2023-11-21T03:10:42;97177.28;;;8.45;100.00
11448;BME280;43755;49.736;8.734;2023-11-21T03:12:45;97186.84;;;8.47;100.00
11448;BME280;43755;49.736;8.734;2023-11-21T03:14:46;97186.13;;;8.44;100.00
11448;BME280;43755;49.736;8.734;2023-11-21T03:16:48;97188.41;;;8.51;100.00
11448;BME280;43755;49.736;8.734;2023-11-21T03:18:50;97187.31;;;8.55;100.00
11448;BME280;43755;49.736;8.734;2023-11-21T03:20:53;97177.50;;;8.59;100.00
11448;BME280;43755;49.736;8.734;2023-11-21T03:22:54;97186.34;;;8.58;100.00
11448;BME280;43755;49.736;8.734;2023-11-21T03:24:55;97194.25;;;8.58;100.00
11448;BME280;43755;49.736;8.734;2023-11-21T03:26:57;97194.31;;;8.56;100.00
11448;BME280;43755;49.736;8.734;2023-11-21T03:29:00;97190.59;;;8.60;100.00
11448;BME280;43755;49.736;8.734;2023-11-21T03:31:01;97189.97;;;8.55;100.00
11448;BME280;43755;49.736;8.734;2023-11-21T03:33:03;97191.53;;;8.59;100.00
11448;BME280;43755;49.736;8.734;2023-11-21T03:35:05;97192.22;;;8.63;100.00
11448;BME280;43755;49.736;8.734;2023-11-21T03:37:06;97193.16;;;8.62;100.00
11448;BME280;43755;49.736;8.734;2023-11-21T03:39:07;97193.16;;;8.62;100.00
11448;BME280;43755;49.736;8.734;2023-11-21T03:41:07;97196.59;;;8.64;100.00
11448;BME280;43755;49.736;8.734;2023-11-21T03:43:10;97199.16;;;8.66;100.00
11448;BME280;43755;49.736;8.734;2023-11-21T03:45:12;97202.84;;;8.61;100.00
11448;BME280;43755;49.736;8.734;2023-11-21T03:47:14;97192.81;;;8.70;100.00
11448;BME280;43755;49.736;8.734;2023-11-21T03:49:16;97194.59;;;8.69;100.00
11448;BME280;43755;49.736;8.734;2023-11-21T03:51:17;97196.28;;;8.70;100.00
11448;BME280;43755;49.736;8.734;2023-11-21T03:53:18;97206.06;;;8.68;100.00
11448;BME280;43755;49.736;8.734;2023-11-21T03:55:20;97205.19;;;8.68;100.00
11448;BME280;43755;49.736;8.734;2023-11-21T03:57:20;97207.06;;;8.66;100.00
11448;BME280;43755;49.736;8.734;2023-11-21T03:59:21;97206.06;;;8.68;100.00
11448;BME280;43755;49.736;8.734;2023-11-21T04:01:25;97204.50;;;8.64;100.00
11448;BME280;43755;49.736;8.734;2023-11-21T04:03:27;97209.69;;;8.66;100.00
11448;BME280;43755;49.736;8.734;2023-11-21T04:05:28;97209.69;;;8.66;100.00
11448;BME280;43755;49.736;8.734;2023-11-21T04:07:30;97207.06;;;8.66;100.00
11448;BME280;43755;49.736;8.734;2023-11-21T04:09:30;97211.56;;;8.63;100.00
11448;BME280;43755;49.736;8.734;2023-11-21T04:11:32;97210.63;;;8.65;100.00
11448;BME280;43755;49.736;8.734;2023-11-21T04:13:33;97212.34;;;8.66;100.00
11448;BME280;43755;49.736;8.734;2023-11-21T04:15:34;97211.38;;;8.67;100.00
11448;BME280;43755;49.736;8.734;2023-11-21T04:17:37;97219.22;;;8.68;100.00
11448;BME280;43755;49.736;8.734;2023-11-21T04:19:39;97221.81;;;8.70;100.00
11448;BME280;43755;49.736;8.734;2023-11-21T04:21:41;97215.59;;;8.71;100.00
11448;BME280;43755;49.736;8.734;2023-11-21T04:23:42;97226.78;;;8.76;100.00
11448;BME280;43755;49.736;8.734;2023-11-21T04:25:43;97216.38;;;8.73;100.00
11448;BME280;43755;49.736;8.734;2023-11-21T04:27:45;97219.97;;;8.72;100.00
11448;BME280;43755;49.736;8.734;2023-11-21T04:29:47;97222.50;;;8.73;100.00
11448;BME280;43755;49.736;8.734;2023-11-21T04:31:48;97222.50;;;8.73;100.00
11448;BME280;43755;49.736;8.734;2023-11-21T04:33:51;97222.59;;;8.72;100.00
11448;BME280;43755;49.736;8.734;2023-11-21T04:35:52;97234.81;;;8.73;100.00
11448;BME280;43755;49.736;8.734;2023-11-21T04:37:54;97233.06;;;8.73;100.00
11448;BME280;43755;49.736;8.734;2023-11-21T04:39:55;97232.00;;;8.77;100.00
11448;BME280;43755;49.736;8.734;2023-11-21T04:41:56;97235.41;;;8.79;100.00
11448;BME280;43755;49.736;8.734;2023-11-21T04:43:58;97248.34;;;8.84;100.00
11448;BME280;43755;49.736;8.734;2023-11-21T04:46:00;97243.66;;;8.90;100.00
11448;BME280;43755;49.736;8.734;2023-11-21T04:48:03;97247.25;;;8.89;100.00
11448;BME280;43755;49.736;8.734;2023-11-21T04:50:07;97245.28;;;8.93;100.00
11448;BME280;43755;49.736;8.734;2023-11-21T04:52:09;97243.75;;;8.89;100.00
11448;BME280;43755;49.736;8.734;2023-11-21T04:54:10;97245.66;;;8.85;100.00
11448;BME280;43755;49.736;8.734;2023-11-21T04:56:12;97248.34;;;8.84;100.00
11448;BME280;43755;49.736;8.734;2023-11-21T04:58:13;97244.22;;;8.78;100.00
11448;BME280;43755;49.736;8.734;2023-11-21T05:00:15;97245.03;;;8.80;100.00
11448;BME280;43755;49.736;8.734;2023-11-21T05:02:17;97251.28;;;8.78;100.00
11448;BME280;43755;49.736;8.734;2023-11-21T05:04:19;97259.34;;;8.75;100.00
11448;BME280;43755;49.736;8.734;2023-11-21T05:06:23;97256.28;;;8.84;100.00
11448;BME280;43755;49.736;8.734;2023-11-21T05:08:24;97260.63;;;8.85;100.00
11448;BME280;43755;49.736;8.734;2023-11-21T05:10:26;97255.16;;;8.89;100.00
11448;BME280;43755;49.736;8.734;2023-11-21T05:12:26;97259.56;;;8.89;100.00
11448;BME280;43755;49.736;8.734;2023-11-21T05:14:28;97266.69;;;8.87;100.00
11448;BME280;43755;49.736;8.734;2023-11-21T05:16:29;97263.97;;;8.88;100.00
11448;BME280;43755;49.736;8.734;2023-11-21T05:18:31;97262.22;;;8.89;100.00
11448;BME280;43755;49.736;8.734;2023-11-21T05:20:32;97269.31;;;8.87;100.00
11448;BME280;43755;49.736;8.734;2023-11-21T05:22:35;97269.31;;;8.87;100.00
11448;BME280;43755;49.736;8.734;2023-11-21T05:24:36;97266.63;;;8.88;100.00
11448;BME280;43755;49.736;8.734;2023-11-21T05:26:39;97270.19;;;8.87;100.00
11448;BME280;43755;49.736;8.734;2023-11-21T05:28:39;97276.44;;;8.85;100.00
11448;BME280;43755;49.736;8.734;2023-11-21T05:30:41;97279.72;;;8.90;100.00
11448;BME280;43755;49.736;8.734;2023-11-21T05:32:42;97283.31;;;8.89;100.00
11448;BME280;43755;49.736;8.734;2023-11-21T05:34:43;97282.63;;;8.84;100.00
11448;BME280;43755;49.736;8.734;2023-11-21T05:36:45;97289.50;;;8.88;100.00
11448;BME280;43755;49.736;8.734;2023-11-21T05:38:48;97299.84;;;8.92;100.00
11448;BME280;43755;49.736;8.734;2023-11-21T05:40:49;97296.00;;;8.81;100.00
11448;BME280;43755;49.736;8.734;2023-11-21T05:42:51;97304.13;;;8.76;100.00
11448;BME280;43755;49.736;8.734;2023-11-21T05:44:52;97299.91;;;8.72;100.00
11448;BME280;43755;49.736;8.734;2023-11-21T05:46:52;97298.63;;;8.81;100.00
11448;BME280;43755;49.736;8.734;2023-11-21T05:48:54;97300.53;;;8.96;100.00
11448;BME280;43755;49.736;8.734;2023-11-21T05:50:55;97301.38;;;9.15;100.00
11448;BME280;43755;49.736;8.734;2023-11-21T05:52:57;97303.66;;;9.23;100.00
11448;BME280;43755;49.736;8.734;2023-11-21T05:55:01;97305.50;;;9.02;100.00
11448;BME280;43755;49.736;8.734;2023-11-21T05:57:03;97308.66;;;8.91;100.00
11448;BME280;43755;49.736;8.734;2023-11-21T05:59:04;97313.09;;;8.91;100.00
11448;BME280;43755;49.736;8.734;2023-11-21T06:01:07;97313.38;;;8.85;100.00
11448;BME280;43755;49.736;8.734;2023-11-21T06:03:09;97309.97;;;8.83;100.00
11448;BME280;43755;49.736;8.734;2023-11-21T06:05:10;97309.88;;;8.84;100.00
11448;BME280;43755;49.736;8.734;2023-11-21T06:07:11;97314.66;;;8.76;100.00
11448;BME280;43755;49.736;8.734;2023-11-21T06:09:12;97317.22;;;8.78;100.00
11448;BME280;43755;49.736;8.734;2023-11-21T06:11:15;97321.72;;;8.76;100.00
11448;BME280;43755;49.736;8.734;2023-11-21T06:13:16;97327.91;;;8.75;100.00
11448;BME280;43755;49.736;8.734;2023-11-21T06:15:21;97331.44;;;8.55;100.00
11448;BME280;43755;49.736;8.734;2023-11-21T06:17:23;97329.13;;;8.68;100.00
11448;BME280;43755;49.736;8.734;2023-11-21T06:19:25;97337.09;;;8.66;100.00
11448;BME280;43755;49.736;8.734;2023-11-21T06:21:26;97337.31;;;8.61;100.00
11448;BME280;43755;49.736;8.734;2023-11-21T06:23:28;97336.16;;;8.67;100.00
11448;BME280;43755;49.736;8.734;2023-11-21T06:25:29;97341.81;;;8.59;100.00
11448;BME280;43755;49.736;8.734;2023-11-21T06:27:37;97345.09;;;8.65;100.00
11448;BME280;43755;49.736;8.734;2023-11-21T06:29:38;97350.00;;;8.53;100.00
11448;BME280;43755;49.736;8.734;2023-11-21T06:31:42;97343.88;;;8.53;100.00
11448;BME280;43755;49.736;8.734;2023-11-21T06:33:44;97356.56;;;8.63;100.00
11448;BME280;43755;49.736;8.734;2023-11-21T06:35:45;97352.53;;;8.55;100.00
11448;BME280;43755;49.736;8.734;2023-11-21T06:37:46;97360.06;;;8.44;100.00
11448;BME280;43755;49.736;8.734;2023-11-21T06:39:47;97356.13;;;8.54;100.00
11448;BME280;43755;49.736;8.734;2023-11-21T06:41:49;97365.22;;;8.47;100.00
11448;BME280;43755;49.736;8.734;2023-11-21T06:43:52;97366.84;;;8.49;100.00
11448;BME280;43755;49.736;8.734;2023-11-21T06:45:53;97373.19;;;8.45;100.00
11448;BME280;43755;49.736;8.734;2023-11-21T06:47:54;97371.53;;;8.43;100.00
11448;BME280;43755;49.736;8.734;2023-11-21T06:49:56;97377.16;;;8.35;100.00
11448;BME280;43755;49.736;8.734;2023-11-21T06:51:57;97382.19;;;8.19;100.00
11448;BME280;43755;49.736;8.734;2023-11-21T06:53:59;97385.28;;;8.09;100.00
11448;BME280;43755;49.736;8.734;2023-11-21T06:56:00;97384.78;;;8.21;100.00
11448;BME280;43755;49.736;8.734;2023-11-21T06:58:01;97396.50;;;8.14;100.00
11448;BME280;43755;49.736;8.734;2023-11-21T07:00:06;97400.84;;;8.15;100.00
11448;BME280;43755;49.736;8.734;2023-11-21T07:02:09;97400.38;;;8.26;100.00
11448;BME280;43755;49.736;8.734;2023-11-21T07:04:10;97403.00;;;8.26;100.00
11448;BME280;43755;49.736;8.734;2023-11-21T07:06:11;97403.28;;;8.19;100.00
11448;BME280;43755;49.736;8.734;2023-11-21T07:08:13;97409.34;;;8.21;100.00
11448;BME280;43755;49.736;8.734;2023-11-21T07:10:14;97408.88;;;8.12;100.00
11448;BME280;43755;49.736;8.734;2023-11-21T07:12:15;97416.31;;;8.02;100.00
11448;BME280;43755;49.736;8.734;2023-11-21T07:14:16;97416.31;;;8.02;100.00
11448;BME280;43755;49.736;8.734;2023-11-21T07:16:21;97424.28;;;8.01;100.00
11448;BME280;43755;49.736;8.734;2023-11-21T07:18:23;97427.03;;;7.98;100.00
11448;BME280;43755;49.736;8.734;2023-11-21T07:20:25;97428.09;;;7.94;100.00
11448;BME280;43755;49.736;8.734;2023-11-21T07:22:27;97432.50;;;7.93;100.00
11448;BME280;43755;49.736;8.734;2023-11-21T07:24:28;97434.63;;;8.05;100.00
11448;BME280;43755;49.736;8.734;2023-11-21T07:26:32;97437.38;;;8.02;100.00
11448;BME280;43755;49.736;8.734;2023-11-21T07:28:34;97444.56;;;7.99;100.00
11448;BME280;43755;49.736;8.734;2023-11-21T07:30:35;97442.03;;;7.96;100.00
11448;BME280;43755;49.736;8.734;2023-11-21T07:32:39;97450.13;;;7.91;100.00
11448;BME280;43755;49.736;8.734;2023-11-21T07:34:41;97452.50;;;7.77;100.00
11448;BME280;43755;49.736;8.734;2023-11-21T07:36:41;97449.78;;;7.78;100.00
11448;BME280;43755;49.736;8.734;2023-11-21T07:38:43;97449.28;;;7.91;100.00
11448;BME280;43755;49.736;8.734;2023-11-21T07:40:43;97445.38;;;8.01;100.00
11448;BME280;43755;49.736;8.734;2023-11-21T07:42:45;97450.94;;;8.13;100.00
11448;BME280;43755;49.736;8.734;2023-11-21T07:44:46;97449.63;;;8.03;100.00
11448;BME280;43755;49.736;8.734;2023-11-21T07:46:48;97453.19;;;8.02;100.00
11448;BME280;43755;49.736;8.734;2023-11-21T07:48:51;97456.13;;;8.16;100.00
11448;BME280;43755;49.736;8.734;2023-11-21T07:50:52;97455.91;;;8.21;100.00
11448;BME280;43755;49.736;8.734;2023-11-21T07:52:53;97457.56;;;8.23;100.00
11448;BME280;43755;49.736;8.734;2023-11-21T07:54:55;97462.09;;;8.20;100.00
11448;BME280;43755;49.736;8.734;2023-11-21T07:56:57;97460.91;;;8.07;100.00
11448;BME280;43755;49.736;8.734;2023-11-21T07:58:58;97464.31;;;8.09;100.00
11448;BME280;43755;49.736;8.734;2023-11-21T08:01:00;97458.19;;;8.08;100.00
11448;BME280;43755;49.736;8.734;2023-11-21T08:03:01;97457.84;;;7.96;100.00
11448;BME280;43755;49.736;8.734;2023-11-21T08:05:04;97465.06;;;8.12;100.00
11448;BME280;43755;49.736;8.734;2023-11-21T08:07:07;97456.41;;;8.09;100.00
11448;BME280;43755;49.736;8.734;2023-11-21T08:09:09;97464.81;;;8.18;100.00
11448;BME280;43755;49.736;8.734;2023-11-21T08:11:12;97468.22;;;8.20;100.00
11448;BME280;43755;49.736;8.734;2023-11-21T08:13:14;97466.91;;;8.10;100.00
11448;BME280;43755;49.736;8.734;2023-11-21T08:15:17;97460.13;;;8.05;100.00
11448;BME280;43755;49.736;8.734;2023-11-21T08:17:18;97468.13;;;8.02;100.00
11448;BME280;43755;49.736;8.734;2023-11-21T08:19:20;97472.91;;;8.14;100.00
11448;BME280;43755;49.736;8.734;2023-11-21T08:21:23;97476.38;;;8.14;100.00
11448;BME280;43755;49.736;8.734;2023-11-21T08:23:25;97481.84;;;8.10;100.00
11448;BME280;43755;49.736;8.734;2023-11-21T08:25:26;97490.56;;;8.12;100.00
11448;BME280;43755;49.736;8.734;2023-11-21T08:27:28;97479.88;;;8.15;100.00
11448;BME280;43755;49.736;8.734;2023-11-21T08:29:28;97479.94;;;8.13;100.00
11448;BME280;43755;49.736;8.734;2023-11-21T08:31:31;97484.44;;;8.11;100.00
11448;BME280;43755;49.736;8.734;2023-11-21T08:33:33;97491.53;;;8.09;100.00
11448;BME280;43755;49.736;8.734;2023-11-21T08:35:35;97491.34;;;8.14;100.00
11448;BME280;43755;49.736;8.734;2023-11-21T08:37:37;97492.34;;;8.11;100.00
11448;BME280;43755;49.736;8.734;2023-11-21T08:39:39;97498.75;;;8.04;100.00
11448;BME280;43755;49.736;8.734;2023-11-21T08:41:42;97501.34;;;8.06;100.00
11448;BME280;43755;49.736;8.734;2023-11-21T08:43:43;97503.06;;;8.07;100.00
11448;BME280;43755;49.736;8.734;2023-11-21T08:45:45;97508.44;;;8.04;100.00
11448;BME280;43755;49.736;8.734;2023-11-21T08:47:46;97509.53;;;8.20;100.00
11448;BME280;43755;49.736;8.734;2023-11-21T08:49:47;97510.59;;;8.16;100.00
11448;BME280;43755;49.736;8.734;2023-11-21T08:51:48;97514.06;;;8.16;100.00
11448;BME280;43755;49.736;8.734;2023-11-21T08:53:51;97515.03;;;8.14;100.00
11448;BME280;43755;49.736;8.734;2023-11-21T08:55:53;97524.31;;;8.24;100.00
11448;BME280;43755;49.736;8.734;2023-11-21T08:57:55;97526.72;;;8.30;100.00
11448;BME280;43755;49.736;8.734;2023-11-21T08:59:56;97529.22;;;8.33;100.00
11448;BME280;43755;49.736;8.734;2023-11-21T09:01:57;97526.22;;;8.42;100.00
11448;BME280;43755;49.736;8.734;2023-11-21T09:03:58;97533.94;;;8.47;100.00
11448;BME280;43755;49.736;8.734;2023-11-21T09:05:58;97533.19;;;8.43;100.00
11448;BME280;43755;49.736;8.734;2023-11-21T09:08:00;97537.69;;;8.41;100.00
11448;BME280;43755;49.736;8.734;2023-11-21T09:10:03;97538.09;;;8.52;100.00
11448;BME280;43755;49.736;8.734;2023-11-21T09:12:04;97537.47;;;8.46;100.00
11448;BME280;43755;49.736;8.734;2023-11-21T09:14:06;97544.81;;;8.59;100.00
11448;BME280;43755;49.736;8.734;2023-11-21T09:16:08;97543.97;;;8.59;100.00
11448;BME280;43755;49.736;8.734;2023-11-21T09:18:09;97541.50;;;8.54;100.00
11448;BME280;43755;49.736;8.734;2023-11-21T09:20:11;97544.03;;;8.57;100.00
11448;BME280;43755;49.736;8.734;2023-11-21T09:22:12;97562.19;;;8.43;100.00
11448;BME280;43755;49.736;8.734;2023-11-21T09:24:13;97557.09;;;8.39;100.00
11448;BME280;43755;49.736;8.734;2023-11-21T09:26:16;97560.75;;;8.36;100.00
11448;BME280;43755;49.736;8.734;2023-11-21T09:28:18;97564.03;;;8.41;100.00
11448;BME280;43755;49.736;8.734;2023-11-21T09:30:19;97568.91;;;8.30;100.00
11448;BME280;43755;49.736;8.734;2023-11-21T09:32:20;97563.91;;;8.44;100.00
11448;BME280;43755;49.736;8.734;2023-11-21T09:34:22;97566.09;;;8.55;100.00
11448;BME280;43755;49.736;8.734;2023-11-21T09:36:23;97572.16;;;8.57;100.00
11448;BME280;43755;49.736;8.734;2023-11-21T09:38:27;97582.75;;;8.55;100.00
11448;BME280;43755;49.736;8.734;2023-11-21T09:40:29;97573.56;;;8.66;100.00
11448;BME280;43755;49.736;8.734;2023-11-21T09:42:36;97575.00;;;8.73;100.00
11448;BME280;43755;49.736;8.734;2023-11-21T09:44:47;97577.28;;;8.60;100.00
11448;BME280;43755;49.736;8.734;2023-11-21T09:46:51;97579.47;;;8.50;100.00
11448;BME280;43755;49.736;8.734;2023-11-21T09:48:55;97580.78;;;8.40;100.00
11448;BME280;43755;49.736;8.734;2023-11-21T09:50:59;97589.34;;;8.45;100.00
11448;BME280;43755;49.736;8.734;2023-11-21T09:53:09;97589.47;;;8.42;100.00
11448;BME280;43755;49.736;8.734;2023-11-21T09:55:16;97583.88;;;8.50;100.00
11448;BME280;43755;49.736;8.734;2023-11-21T09:57:21;97586.00;;;8.62;100.00
11448;BME280;43755;49.736;8.734;2023-11-21T09:59:30;97596.03;;;8.54;100.00
11448;BME280;43755;49.736;8.734;2023-11-21T10:01:32;97596.88;;;8.54;100.00
11448;BME280;43755;49.736;8.734;2023-11-21T10:03:35;97598.53;;;8.57;100.00
11448;BME280;43755;49.736;8.734;2023-11-21T10:05:37;97599.59;;;8.53;100.00
11448;BME280;43755;49.736;8.734;2023-11-21T10:07:39;97604.41;;;8.63;100.00
11448;BME280;43755;49.736;8.734;2023-11-21T10:09:40;97602.03;;;8.57;100.00
11448;BME280;43755;49.736;8.734;2023-11-21T10:11:42;97607.31;;;8.57;100.00
11448;BME280;43755;49.736;8.734;2023-11-21T10:13:44;97604.06;;;8.51;100.00
11448;BME280;43755;49.736;8.734;2023-11-21T10:15:50;97616.63;;;8.44;100.00
11448;BME280;43755;49.736;8.734;2023-11-21T10:17:52;97607.25;;;8.59;100.00
11448;BME280;43755;49.736;8.734;2023-11-21T10:19:55;97608.88;;;8.61;100.00
11448;BME280;43755;49.736;8.734;2023-11-21T10:21:58;97604.00;;;8.52;100.00
11448;BME280;43755;49.736;8.734;2023-11-21T10:24:02;97604.34;;;8.65;100.00
11448;BME280;43755;49.736;8.734;2023-11-21T10:26:04;97614.91;;;8.65;100.00
11448;BME280;43755;49.736;8.734;2023-11-21T10:28:09;97606.47;;;8.77;100.00
11448;BME280;43755;49.736;8.734;2023-11-21T10:30:10;97607.81;;;8.87;100.00
11448;BME280;43755;49.736;8.734;2023-11-21T10:32:14;97608.47;;;8.92;100.00
11448;BME280;43755;49.736;8.734;2023-11-21T10:34:16;97611.25;;;8.89;100.00
11448;BME280;43755;49.736;8.734;2023-11-21T10:36:25;97625.91;;;8.75;100.00
11448;BME280;43755;49.736;8.734;2023-11-21T10:38:27;97620.38;;;8.81;100.00
11448;BME280;43755;49.736;8.734;2023-11-21T10:40:30;97623.88;;;8.81;100.00
11448;BME280;43755;49.736;8.734;2023-11-21T10:42:32;97610.38;;;8.89;100.00
11448;BME280;43755;49.736;8.734;2023-11-21T10:44:34;97622.38;;;8.96;100.00
11448;BME280;43755;49.736;8.734;2023-11-21T10:46:35;97627.13;;;8.66;100.00